sensor_id;sensor_type;location;lat;lon;timestamp;P1;durP1;ratioP1;P2;durP2;ratioP2
19032;SDS011;9649;51.042;13.804;2023-05-29T00:02:01;8.50;;;5.55;;
19032;SDS011;9649;51.042;13.804;2023-05-29T00:07:05;10.15;;;6.00;;
19032;SDS011;9649;51.042;13.804;2023-05-29T00:12:08;9.13;;;5.53;;
19032;SDS011;9649;51.042;13.804;2023-05-29T00:17:11;9.38;;;5.60;;
19032;SDS011;9649;51.042;13.804;2023-05-29T00:22:15;8.68;;;4.85;;
19032;SDS011;9649;51.042;13.804;2023-05-29T00:27:18;8.88;;;4.93;;
19032;SDS011;9649;51.042;13.804;2023-05-29T00:32:21;9.85;;;5.00;;
19032;SDS011;9649;51.042;13.804;2023-05-29T00:37:25;8.90;;;5.28;;
19032;SDS011;9649;51.042;13.804;2023-05-29T00:42:28;9.82;;;5.10;;
19032;SDS011;9649;51.042;13.804;2023-05-29T00:47:30;8.15;;;4.45;;
19032;SDS011;9649;51.042;13.804;2023-05-29T00:52:34;7.75;;;4.78;;
19032;SDS011;9649;51.042;13.804;2023-05-29T00:57:37;7.75;;;4.53;;
19032;SDS011;9649;51.042;13.804;2023-05-29T01:02:40;6.53;;;4.60;;
19032;SDS011;9649;51.042;13.804;2023-05-29T01:07:47;6.72;;;4.68;;
19032;SDS011;9649;51.042;13.804;2023-05-29T01:12:51;10.20;;;4.93;;
19032;SDS011;9649;51.042;13.804;2023-05-29T01:18:12;8.88;;;4.63;;
19032;SDS011;9649;51.042;13.804;2023-05-29T01:29:05;9.38;;;4.70;;
19032;SDS011;9649;51.042;13.804;2023-05-29T01:34:10;6.55;;;4.03;;
19032;SDS011;9649;51.042;13.804;2023-05-29T01:39:12;9.07;;;4.80;;
19032;SDS011;9649;51.042;13.804;2023-05-29T01:44:17;8.18;;;4.60;;
19032;SDS011;9649;51.042;13.804;2023-05-29T01:49:22;6.82;;;4.70;;
19032;SDS011;9649;51.042;13.804;2023-05-29T01:54:26;10.80;;;4.80;;
19032;SDS011;9649;51.042;13.804;2023-05-29T01:59:30;9.68;;;4.82;;
19032;SDS011;9649;51.042;13.804;2023-05-29T02:04:34;7.90;;;4.87;;
19032;SDS011;9649;51.042;13.804;2023-05-29T02:09:37;7.80;;;4.50;;
19032;SDS011;9649;51.042;13.804;2023-05-29T02:14:41;7.75;;;4.70;;
19032;SDS011;9649;51.042;13.804;2023-05-29T02:19:44;8.77;;;5.10;;
19032;SDS011;9649;51.042;13.804;2023-05-29T02:24:47;7.75;;;4.90;;
19032;SDS011;9649;51.042;13.804;2023-05-29T02:29:51;8.77;;;4.30;;
19032;SDS011;9649;51.042;13.804;2023-05-29T02:34:54;7.73;;;4.40;;
19032;SDS011;9649;51.042;13.804;2023-05-29T02:39:56;9.70;;;5.20;;
19032;SDS011;9649;51.042;13.804;2023-05-29T02:45:00;8.93;;;4.63;;
19032;SDS011;9649;51.042;13.804;2023-05-29T02:50:04;7.50;;;4.60;;
19032;SDS011;9649;51.042;13.804;2023-05-29T02:55:08;6.87;;;4.67;;
19032;SDS011;9649;51.042;13.804;2023-05-29T03:00:12;5.73;;;3.83;;
19032;SDS011;9649;51.042;13.804;2023-05-29T03:05:16;9.63;;;4.57;;
19032;SDS011;9649;51.042;13.804;2023-05-29T03:10:18;6.70;;;4.70;;
19032;SDS011;9649;51.042;13.804;2023-05-29T03:15:23;7.20;;;4.50;;
19032;SDS011;9649;51.042;13.804;2023-05-29T03:20:25;8.37;;;4.37;;
19032;SDS011;9649;51.042;13.804;2023-05-29T03:25:29;7.63;;;4.27;;
19032;SDS011;9649;51.042;13.804;2023-05-29T03:30:33;8.47;;;5.00;;
19032;SDS011;9649;51.042;13.804;2023-05-29T03:35:36;7.30;;;4.80;;
19032;SDS011;9649;51.042;13.804;2023-05-29T03:40:38;6.97;;;4.47;;
19032;SDS011;9649;51.042;13.804;2023-05-29T03:45:42;6.93;;;4.70;;
19032;SDS011;9649;51.042;13.804;2023-05-29T03:50:45;8.43;;;4.67;;
19032;SDS011;9649;51.042;13.804;2023-05-29T03:55:48;7.73;;;4.63;;
19032;SDS011;9649;51.042;13.804;2023-05-29T04:00:52;6.33;;;4.20;;
19032;SDS011;9649;51.042;13.804;2023-05-29T04:05:55;6.10;;;4.60;;
19032;SDS011;9649;51.042;13.804;2023-05-29T04:10:58;8.17;;;4.30;;
19032;SDS011;9649;51.042;13.804;2023-05-29T04:16:04;8.40;;;4.43;;
19032;SDS011;9649;51.042;13.804;2023-05-29T04:21:07;7.50;;;4.50;;
19032;SDS011;9649;51.042;13.804;2023-05-29T04:26:10;8.40;;;3.97;;
19032;SDS011;9649;51.042;13.804;2023-05-29T04:31:15;8.23;;;4.07;;
19032;SDS011;9649;51.042;13.804;2023-05-29T04:36:22;5.97;;;4.23;;
19032;SDS011;9649;51.042;13.804;2023-05-29T04:41:34;9.50;;;4.10;;
19032;SDS011;9649;51.042;13.804;2023-05-29T04:46:50;7.33;;;4.30;;
19032;SDS011;9649;51.042;13.804;2023-05-29T04:52:10;7.37;;;4.43;;
19032;SDS011;9649;51.042;13.804;2023-05-29T04:57:25;7.30;;;4.17;;
19032;SDS011;9649;51.042;13.804;2023-05-29T05:02:56;8.32;;;4.43;;
19032;SDS011;9649;51.042;13.804;2023-05-29T05:08:01;8.10;;;4.20;;
19032;SDS011;9649;51.042;13.804;2023-05-29T05:13:08;7.60;;;4.20;;
19032;SDS011;9649;51.042;13.804;2023-05-29T05:18:27;7.70;;;4.25;;
19032;SDS011;9649;51.042;13.804;2023-05-29T05:23:38;8.70;;;3.97;;
19032;SDS011;9649;51.042;13.804;2023-05-29T05:28:58;7.38;;;4.03;;
19032;SDS011;9649;51.042;13.804;2023-05-29T05:34:03;6.47;;;3.75;;
19032;SDS011;9649;51.042;13.804;2023-05-29T05:39:14;7.45;;;4.10;;
19032;SDS011;9649;51.042;13.804;2023-05-29T05:44:17;7.15;;;3.90;;
19032;SDS011;9649;51.042;13.804;2023-05-29T05:49:22;8.52;;;4.50;;
19032;SDS011;9649;51.042;13.804;2023-05-29T05:54:25;6.45;;;3.75;;
19032;SDS011;9649;51.042;13.804;2023-05-29T05:59:29;5.57;;;3.90;;
19032;SDS011;9649;51.042;13.804;2023-05-29T06:04:33;6.60;;;3.80;;
19032;SDS011;9649;51.042;13.804;2023-05-29T06:09:39;6.63;;;4.13;;
19032;SDS011;9649;51.042;13.804;2023-05-29T06:14:43;6.20;;;4.20;;
19032;SDS011;9649;51.042;13.804;2023-05-29T06:19:47;6.32;;;4.25;;
19032;SDS011;9649;51.042;13.804;2023-05-29T06:24:53;7.38;;;4.32;;
19032;SDS011;9649;51.042;13.804;2023-05-29T06:29:56;8.18;;;4.50;;
19032;SDS011;9649;51.042;13.804;2023-05-29T06:35:00;10.90;;;4.22;;
19032;SDS011;9649;51.042;13.804;2023-05-29T06:40:10;7.22;;;4.20;;
19032;SDS011;9649;51.042;13.804;2023-05-29T06:45:17;7.32;;;3.97;;
19032;SDS011;9649;51.042;13.804;2023-05-29T06:50:22;6.85;;;4.15;;
19032;SDS011;9649;51.042;13.804;2023-05-29T06:55:33;7.65;;;3.92;;
19032;SDS011;9649;51.042;13.804;2023-05-29T07:00:37;7.68;;;4.40;;
19032;SDS011;9649;51.042;13.804;2023-05-29T07:05:45;5.88;;;4.30;;
19032;SDS011;9649;51.042;13.804;2023-05-29T07:10:52;7.82;;;3.78;;
19032;SDS011;9649;51.042;13.804;2023-05-29T07:15:58;5.75;;;3.80;;
19032;SDS011;9649;51.042;13.804;2023-05-29T07:21:18;7.88;;;3.97;;
19032;SDS011;9649;51.042;13.804;2023-05-29T07:26:24;6.28;;;3.75;;
19032;SDS011;9649;51.042;13.804;2023-05-29T07:31:39;6.97;;;3.88;;
19032;SDS011;9649;51.042;13.804;2023-05-29T07:36:57;7.47;;;3.42;;
19032;SDS011;9649;51.042;13.804;2023-05-29T07:42:10;7.38;;;3.42;;
19032;SDS011;9649;51.042;13.804;2023-05-29T07:47:19;7.70;;;3.95;;
19032;SDS011;9649;51.042;13.804;2023-05-29T07:52:23;8.05;;;3.30;;
19032;SDS011;9649;51.042;13.804;2023-05-29T07:57:27;5.95;;;3.63;;
19032;SDS011;9649;51.042;13.804;2023-05-29T08:02:30;4.97;;;3.33;;
19032;SDS011;9649;51.042;13.804;2023-05-29T08:07:36;7.72;;;3.65;;
19032;SDS011;9649;51.042;13.804;2023-05-29T08:12:39;4.55;;;3.05;;
19032;SDS011;9649;51.042;13.804;2023-05-29T08:17:42;5.47;;;3.60;;
19032;SDS011;9649;51.042;13.804;2023-05-29T08:22:46;4.78;;;2.88;;
19032;SDS011;9649;51.042;13.804;2023-05-29T08:27:49;4.45;;;2.88;;
19032;SDS011;9649;51.042;13.804;2023-05-29T08:32:52;4.28;;;2.80;;
19032;SDS011;9649;51.042;13.804;2023-05-29T08:37:56;6.05;;;2.70;;
19032;SDS011;9649;51.042;13.804;2023-05-29T08:42:59;4.43;;;2.80;;
19032;SDS011;9649;51.042;13.804;2023-05-29T08:48:08;7.50;;;2.80;;
19032;SDS011;9649;51.042;13.804;2023-05-29T08:53:14;3.28;;;2.17;;
19032;SDS011;9649;51.042;13.804;2023-05-29T08:58:18;6.82;;;1.95;;
19032;SDS011;9649;51.042;13.804;2023-05-29T09:03:23;2.95;;;1.88;;
19032;SDS011;9649;51.042;13.804;2023-05-29T09:08:28;7.00;;;2.30;;
19032;SDS011;9649;51.042;13.804;2023-05-29T09:13:31;3.30;;;2.33;;
19032;SDS011;9649;51.042;13.804;2023-05-29T09:18:34;3.80;;;2.00;;
19032;SDS011;9649;51.042;13.804;2023-05-29T09:23:39;4.95;;;2.28;;
19032;SDS011;9649;51.042;13.804;2023-05-29T09:28:42;2.97;;;2.10;;
19032;SDS011;9649;51.042;13.804;2023-05-29T09:33:48;8.63;;;2.08;;
19032;SDS011;9649;51.042;13.804;2023-05-29T09:38:54;3.58;;;2.00;;
19032;SDS011;9649;51.042;13.804;2023-05-29T09:44:11;4.30;;;2.15;;
19032;SDS011;9649;51.042;13.804;2023-05-29T09:49:15;3.53;;;2.25;;
19032;SDS011;9649;51.042;13.804;2023-05-29T09:54:21;3.47;;;2.17;;
19032;SDS011;9649;51.042;13.804;2023-05-29T09:59:25;2.85;;;2.10;;
19032;SDS011;9649;51.042;13.804;2023-05-29T10:04:30;4.65;;;2.10;;
19032;SDS011;9649;51.042;13.804;2023-05-29T10:09:41;4.10;;;2.10;;
19032;SDS011;9649;51.042;13.804;2023-05-29T10:14:47;5.00;;;2.00;;
19032;SDS011;9649;51.042;13.804;2023-05-29T10:19:52;3.95;;;2.10;;
19032;SDS011;9649;51.042;13.804;2023-05-29T10:25:02;3.67;;;2.25;;
19032;SDS011;9649;51.042;13.804;2023-05-29T10:30:09;5.95;;;2.25;;
19032;SDS011;9649;51.042;13.804;2023-05-29T10:35:18;6.30;;;2.08;;
19032;SDS011;9649;51.042;13.804;2023-05-29T10:40:28;5.10;;;2.40;;
19032;SDS011;9649;51.042;13.804;2023-05-29T10:45:49;3.22;;;2.10;;
19032;SDS011;9649;51.042;13.804;2023-05-29T10:50:53;4.75;;;2.13;;
19032;SDS011;9649;51.042;13.804;2023-05-29T10:55:59;3.35;;;2.45;;
19032;SDS011;9649;51.042;13.804;2023-05-29T11:01:04;4.15;;;2.03;;
19032;SDS011;9649;51.042;13.804;2023-05-29T11:06:07;3.90;;;2.13;;
19032;SDS011;9649;51.042;13.804;2023-05-29T11:11:29;3.70;;;2.22;;
19032;SDS011;9649;51.042;13.804;2023-05-29T11:16:37;3.65;;;2.38;;
19032;SDS011;9649;51.042;13.804;2023-05-29T11:21:45;6.68;;;2.38;;
19032;SDS011;9649;51.042;13.804;2023-05-29T11:27:02;3.30;;;2.25;;
19032;SDS011;9649;51.042;13.804;2023-05-29T11:32:10;3.10;;;2.15;;
19032;SDS011;9649;51.042;13.804;2023-05-29T11:37:20;5.30;;;2.30;;
19032;SDS011;9649;51.042;13.804;2023-05-29T11:42:25;3.28;;;2.00;;
19032;SDS011;9649;51.042;13.804;2023-05-29T11:47:28;3.67;;;2.10;;
19032;SDS011;9649;51.042;13.804;2023-05-29T11:52:31;6.80;;;2.60;;
19032;SDS011;9649;51.042;13.804;2023-05-29T11:57:35;7.20;;;2.42;;
19032;SDS011;9649;51.042;13.804;2023-05-29T12:02:38;5.28;;;2.25;;
19032;SDS011;9649;51.042;13.804;2023-05-29T12:07:46;6.88;;;2.40;;
19032;SDS011;9649;51.042;13.804;2023-05-29T12:12:52;6.45;;;2.30;;
19032;SDS011;9649;51.042;13.804;2023-05-29T12:17:56;7.15;;;2.40;;
19032;SDS011;9649;51.042;13.804;2023-05-29T12:22:59;4.53;;;2.33;;
19032;SDS011;9649;51.042;13.804;2023-05-29T12:28:04;4.38;;;2.45;;
19032;SDS011;9649;51.042;13.804;2023-05-29T12:33:07;4.55;;;2.60;;
19032;SDS011;9649;51.042;13.804;2023-05-29T12:38:10;3.22;;;2.33;;
19032;SDS011;9649;51.042;13.804;2023-05-29T12:43:14;7.05;;;2.58;;
19032;SDS011;9649;51.042;13.804;2023-05-29T12:48:18;2.65;;;2.35;;
19032;SDS011;9649;51.042;13.804;2023-05-29T12:53:23;3.60;;;2.25;;
19032;SDS011;9649;51.042;13.804;2023-05-29T12:58:32;5.18;;;2.60;;
19032;SDS011;9649;51.042;13.804;2023-05-29T13:03:35;4.47;;;2.30;;
19032;SDS011;9649;51.042;13.804;2023-05-29T13:08:38;4.07;;;2.40;;
19032;SDS011;9649;51.042;13.804;2023-05-29T13:13:42;7.25;;;2.80;;
19032;SDS011;9649;51.042;13.804;2023-05-29T13:18:45;3.30;;;2.25;;
19032;SDS011;9649;51.042;13.804;2023-05-29T13:23:48;5.15;;;2.55;;
19032;SDS011;9649;51.042;13.804;2023-05-29T13:28:52;5.30;;;2.50;;
19032;SDS011;9649;51.042;13.804;2023-05-29T13:33:54;5.35;;;2.70;;
19032;SDS011;9649;51.042;13.804;2023-05-29T13:38:57;6.40;;;2.50;;
19032;SDS011;9649;51.042;13.804;2023-05-29T13:44:01;3.30;;;2.47;;
19032;SDS011;9649;51.042;13.804;2023-05-29T13:49:05;4.38;;;2.70;;
19032;SDS011;9649;51.042;13.804;2023-05-29T13:54:08;7.45;;;2.60;;
19032;SDS011;9649;51.042;13.804;2023-05-29T13:59:12;4.60;;;2.78;;
19032;SDS011;9649;51.042;13.804;2023-05-29T14:04:16;6.25;;;3.30;;
19032;SDS011;9649;51.042;13.804;2023-05-29T14:09:18;5.47;;;2.95;;
19032;SDS011;9649;51.042;13.804;2023-05-29T14:14:29;6.00;;;2.42;;
19032;SDS011;9649;51.042;13.804;2023-05-29T14:19:31;4.65;;;2.42;;
19032;SDS011;9649;51.042;13.804;2023-05-29T14:24:34;5.57;;;2.60;;
19032;SDS011;9649;51.042;13.804;2023-05-29T14:29:38;5.03;;;2.60;;
19032;SDS011;9649;51.042;13.804;2023-05-29T14:34:41;5.65;;;3.17;;
19032;SDS011;9649;51.042;13.804;2023-05-29T14:39:44;5.22;;;2.45;;
19032;SDS011;9649;51.042;13.804;2023-05-29T14:44:48;4.07;;;2.60;;
19032;SDS011;9649;51.042;13.804;2023-05-29T14:49:51;3.22;;;2.45;;
19032;SDS011;9649;51.042;13.804;2023-05-29T14:54:53;6.68;;;2.90;;
19032;SDS011;9649;51.042;13.804;2023-05-29T14:59:57;6.65;;;3.60;;
19032;SDS011;9649;51.042;13.804;2023-05-29T15:05:00;8.52;;;2.78;;
19032;SDS011;9649;51.042;13.804;2023-05-29T15:10:03;6.82;;;2.47;;
19032;SDS011;9649;51.042;13.804;2023-05-29T15:15:09;4.43;;;2.95;;
19032;SDS011;9649;51.042;13.804;2023-05-29T15:20:12;6.72;;;3.35;;
19032;SDS011;9649;51.042;13.804;2023-05-29T15:25:16;4.97;;;2.67;;
19032;SDS011;9649;51.042;13.804;2023-05-29T15:30:21;6.10;;;2.80;;
19032;SDS011;9649;51.042;13.804;2023-05-29T15:35:24;7.35;;;2.88;;
19032;SDS011;9649;51.042;13.804;2023-05-29T15:40:27;7.15;;;2.70;;
19032;SDS011;9649;51.042;13.804;2023-05-29T15:45:31;4.00;;;2.70;;
19032;SDS011;9649;51.042;13.804;2023-05-29T15:50:34;8.82;;;3.00;;
19032;SDS011;9649;51.042;13.804;2023-05-29T15:55:36;4.90;;;2.60;;
19032;SDS011;9649;51.042;13.804;2023-05-29T16:00:43;5.10;;;2.78;;
19032;SDS011;9649;51.042;13.804;2023-05-29T16:05:46;5.93;;;3.13;;
19032;SDS011;9649;51.042;13.804;2023-05-29T16:10:49;4.32;;;2.70;;
19032;SDS011;9649;51.042;13.804;2023-05-29T16:15:53;5.65;;;2.50;;
19032;SDS011;9649;51.042;13.804;2023-05-29T16:20:56;6.90;;;2.67;;
19032;SDS011;9649;51.042;13.804;2023-05-29T16:26:00;4.78;;;2.78;;
19032;SDS011;9649;51.042;13.804;2023-05-29T16:31:08;4.22;;;2.40;;
19032;SDS011;9649;51.042;13.804;2023-05-29T16:36:13;8.63;;;3.10;;
19032;SDS011;9649;51.042;13.804;2023-05-29T16:41:16;5.75;;;2.63;;
19032;SDS011;9649;51.042;13.804;2023-05-29T16:46:20;4.95;;;3.10;;
19032;SDS011;9649;51.042;13.804;2023-05-29T16:51:24;3.75;;;2.75;;
19032;SDS011;9649;51.042;13.804;2023-05-29T16:56:27;6.60;;;2.83;;
19032;SDS011;9649;51.042;13.804;2023-05-29T17:01:31;4.15;;;2.58;;
19032;SDS011;9649;51.042;13.804;2023-05-29T17:06:34;4.95;;;2.78;;
19032;SDS011;9649;51.042;13.804;2023-05-29T17:11:37;4.18;;;2.45;;
19032;SDS011;9649;51.042;13.804;2023-05-29T17:16:41;5.43;;;2.70;;
19032;SDS011;9649;51.042;13.804;2023-05-29T17:21:44;6.43;;;3.00;;
19032;SDS011;9649;51.042;13.804;2023-05-29T17:26:48;7.18;;;2.80;;
19032;SDS011;9649;51.042;13.804;2023-05-29T17:31:52;4.63;;;2.65;;
19032;SDS011;9649;51.042;13.804;2023-05-29T17:36:55;4.88;;;2.95;;
19032;SDS011;9649;51.042;13.804;2023-05-29T17:41:58;6.45;;;2.85;;
19032;SDS011;9649;51.042;13.804;2023-05-29T17:47:02;6.60;;;3.03;;
19032;SDS011;9649;51.042;13.804;2023-05-29T17:52:06;8.75;;;2.95;;
19032;SDS011;9649;51.042;13.804;2023-05-29T17:57:09;6.22;;;2.90;;
19032;SDS011;9649;51.042;13.804;2023-05-29T18:02:16;5.43;;;2.80;;
19032;SDS011;9649;51.042;13.804;2023-05-29T18:07:19;5.05;;;2.80;;
19032;SDS011;9649;51.042;13.804;2023-05-29T18:12:21;4.65;;;2.53;;
19032;SDS011;9649;51.042;13.804;2023-05-29T18:17:45;4.40;;;2.67;;
19032;SDS011;9649;51.042;13.804;2023-05-29T18:22:48;6.18;;;3.30;;
19032;SDS011;9649;51.042;13.804;2023-05-29T18:27:51;5.95;;;2.92;;
19032;SDS011;9649;51.042;13.804;2023-05-29T18:32:55;10.38;;;3.00;;
19032;SDS011;9649;51.042;13.804;2023-05-29T18:38:02;3.85;;;2.67;;
19032;SDS011;9649;51.042;13.804;2023-05-29T18:43:05;4.22;;;2.75;;
19032;SDS011;9649;51.042;13.804;2023-05-29T18:48:09;5.80;;;3.08;;
19032;SDS011;9649;51.042;13.804;2023-05-29T18:53:12;4.03;;;2.80;;
19032;SDS011;9649;51.042;13.804;2023-05-29T18:58:15;5.75;;;3.30;;
19032;SDS011;9649;51.042;13.804;2023-05-29T19:03:19;7.18;;;4.07;;
19032;SDS011;9649;51.042;13.804;2023-05-29T19:08:22;6.95;;;3.78;;
19032;SDS011;9649;51.042;13.804;2023-05-29T19:13:25;6.20;;;3.38;;
19032;SDS011;9649;51.042;13.804;2023-05-29T19:18:29;4.25;;;2.97;;
19032;SDS011;9649;51.042;13.804;2023-05-29T19:23:32;5.15;;;3.10;;
19032;SDS011;9649;51.042;13.804;2023-05-29T19:28:35;6.38;;;3.30;;
19032;SDS011;9649;51.042;13.804;2023-05-29T19:33:39;6.65;;;3.22;;
19032;SDS011;9649;51.042;13.804;2023-05-29T19:38:42;6.95;;;3.08;;
19032;SDS011;9649;51.042;13.804;2023-05-29T19:43:45;5.15;;;2.90;;
19032;SDS011;9649;51.042;13.804;2023-05-29T19:48:49;5.72;;;3.08;;
19032;SDS011;9649;51.042;13.804;2023-05-29T19:53:52;7.03;;;3.45;;
19032;SDS011;9649;51.042;13.804;2023-05-29T19:58:55;4.55;;;3.03;;
19032;SDS011;9649;51.042;13.804;2023-05-29T20:03:59;5.00;;;3.00;;
19032;SDS011;9649;51.042;13.804;2023-05-29T20:09:02;5.20;;;2.72;;
19032;SDS011;9649;51.042;13.804;2023-05-29T20:14:06;6.18;;;3.20;;
19032;SDS011;9649;51.042;13.804;2023-05-29T20:19:10;5.70;;;3.05;;
19032;SDS011;9649;51.042;13.804;2023-05-29T20:24:13;6.75;;;3.28;;
19032;SDS011;9649;51.042;13.804;2023-05-29T20:29:16;7.18;;;3.08;;
19032;SDS011;9649;51.042;13.804;2023-05-29T20:34:20;5.00;;;2.90;;
19032;SDS011;9649;51.042;13.804;2023-05-29T20:39:23;5.38;;;3.10;;
19032;SDS011;9649;51.042;13.804;2023-05-29T20:44:28;6.35;;;3.10;;
19032;SDS011;9649;51.042;13.804;2023-05-29T20:49:34;5.82;;;3.17;;
19032;SDS011;9649;51.042;13.804;2023-05-29T20:54:37;5.35;;;3.10;;
19032;SDS011;9649;51.042;13.804;2023-05-29T20:59:39;5.85;;;3.33;;
19032;SDS011;9649;51.042;13.804;2023-05-29T21:04:44;4.47;;;3.20;;
19032;SDS011;9649;51.042;13.804;2023-05-29T21:09:47;6.25;;;3.70;;
19032;SDS011;9649;51.042;13.804;2023-05-29T21:14:50;6.35;;;2.78;;
19032;SDS011;9649;51.042;13.804;2023-05-29T21:19:54;6.95;;;3.28;;
19032;SDS011;9649;51.042;13.804;2023-05-29T21:25:00;6.35;;;3.13;;
19032;SDS011;9649;51.042;13.804;2023-05-29T21:30:05;6.75;;;3.25;;
19032;SDS011;9649;51.042;13.804;2023-05-29T21:35:10;6.00;;;3.30;;
19032;SDS011;9649;51.042;13.804;2023-05-29T21:40:14;6.68;;;3.50;;
19032;SDS011;9649;51.042;13.804;2023-05-29T21:45:17;7.32;;;3.47;;
19032;SDS011;9649;51.042;13.804;2023-05-29T21:50:21;5.85;;;3.47;;
19032;SDS011;9649;51.042;13.804;2023-05-29T21:55:24;8.05;;;3.50;;
19032;SDS011;9649;51.042;13.804;2023-05-29T22:00:27;7.07;;;3.55;;
19032;SDS011;9649;51.042;13.804;2023-05-29T22:05:33;5.53;;;3.08;;
19032;SDS011;9649;51.042;13.804;2023-05-29T22:10:36;5.68;;;4.03;;
19032;SDS011;9649;51.042;13.804;2023-05-29T22:15:38;6.30;;;3.20;;
19032;SDS011;9649;51.042;13.804;2023-05-29T22:20:42;4.18;;;2.83;;
19032;SDS011;9649;51.042;13.804;2023-05-29T22:25:45;7.03;;;3.20;;
19032;SDS011;9649;51.042;13.804;2023-05-29T22:30:48;5.43;;;3.35;;
19032;SDS011;9649;51.042;13.804;2023-05-29T22:35:52;6.18;;;3.28;;
19032;SDS011;9649;51.042;13.804;2023-05-29T22:40:57;4.97;;;2.63;;
19032;SDS011;9649;51.042;13.804;2023-05-29T22:45:59;6.75;;;2.75;;
19032;SDS011;9649;51.042;13.804;2023-05-29T22:51:05;5.35;;;2.65;;
19032;SDS011;9649;51.042;13.804;2023-05-29T22:56:08;9.25;;;2.90;;
19032;SDS011;9649;51.042;13.804;2023-05-29T23:01:11;7.35;;;2.70;;
19032;SDS011;9649;51.042;13.804;2023-05-29T23:06:16;7.82;;;2.72;;
19032;SDS011;9649;51.042;13.804;2023-05-29T23:11:19;8.38;;;2.78;;
19032;SDS011;9649;51.042;13.804;2023-05-29T23:16:41;7.78;;;2.85;;
19032;SDS011;9649;51.042;13.804;2023-05-29T23:21:45;4.97;;;2.60;;
19032;SDS011;9649;51.042;13.804;2023-05-29T23:26:49;6.85;;;2.85;;
19032;SDS011;9649;51.042;13.804;2023-05-29T23:31:51;5.40;;;2.60;;
19032;SDS011;9649;51.042;13.804;2023-05-29T23:36:55;4.75;;;2.60;;
19032;SDS011;9649;51.042;13.804;2023-05-29T23:41:58;7.20;;;3.15;;
19032;SDS011;9649;51.042;13.804;2023-05-29T23:47:02;5.25;;;3.25;;
19032;SDS011;9649;51.042;13.804;2023-05-29T23:52:06;5.55;;;2.58;;
19032;SDS011;9649;51.042;13.804;2023-05-29T23:57:09;7.82;;;2.85;;
